createdAt,value
2023-01-02T00:01:46.356Z,8.37
2023-01-02T00:04:34.992Z,8.47
2023-01-02T00:07:24.509Z,8.40
2023-01-02T00:10:13.455Z,5.77
2023-01-02T00:13:01.982Z,6.30
2023-01-02T00:15:50.612Z,7.57
2023-01-02T00:18:41.260Z,7.93
2023-01-02T00:21:30.904Z,7.57
2023-01-02T00:24:19.465Z,6.83
2023-01-02T00:27:07.979Z,8.07
2023-01-02T00:29:56.484Z,9.60
2023-01-02T00:32:45.031Z,8.37
2023-01-02T00:35:38.343Z,6.40
2023-01-02T00:38:26.978Z,7.53
2023-01-02T00:41:15.631Z,9.03
2023-01-02T00:44:04.491Z,9.60
2023-01-02T00:46:53.116Z,8.77
2023-01-02T00:49:41.910Z,11.40
2023-01-02T00:52:32.659Z,11.17
2023-01-02T00:55:21.304Z,13.10
2023-01-02T00:58:09.844Z,10.90
2023-01-02T01:00:58.317Z,11.33
2023-01-02T01:03:46.881Z,9.63
2023-01-02T01:06:35.711Z,8.87
2023-01-02T01:09:25.707Z,9.77
2023-01-02T01:12:14.180Z,11.10
2023-01-02T01:15:02.859Z,10.43
2023-01-02T01:17:51.536Z,9.13
2023-01-02T01:20:40.355Z,10.77
2023-01-02T01:23:28.900Z,7.13
2023-01-02T01:26:19.074Z,8.33
2023-01-02T01:29:07.853Z,11.27
2023-01-02T01:31:56.442Z,10.43
2023-01-02T01:34:45.036Z,10.07
2023-01-02T01:37:33.660Z,6.77
2023-01-02T01:40:22.318Z,6.73
2023-01-02T01:43:16.094Z,8.90
2023-01-02T01:46:07.006Z,6.50
2023-01-02T01:49:01.250Z,7.50
2023-01-02T01:51:53.861Z,10.77
2023-01-02T01:54:44.994Z,8.63
2023-01-02T01:57:37.431Z,8.87
2023-01-02T02:00:27.589Z,9.50
2023-01-02T02:03:19.645Z,5.83
2023-01-02T02:06:09.021Z,6.27
2023-01-02T02:09:02.421Z,5.93
2023-01-02T02:11:51.564Z,10.07
2023-01-02T02:14:40.124Z,7.40
2023-01-02T02:17:39.202Z,8.43
2023-01-02T02:20:40.513Z,9.30
2023-01-02T02:23:59.751Z,6.00
2023-01-02T02:27:03.286Z,7.47
2023-01-02T02:30:12.137Z,5.70
2023-01-02T02:33:27.460Z,8.00
2023-01-02T02:36:22.777Z,6.73
2023-01-02T02:39:25.556Z,5.90
2023-01-02T02:42:26.291Z,6.17
2023-01-02T02:45:27.135Z,8.90
2023-01-02T02:48:22.379Z,7.50
2023-01-02T02:51:16.661Z,8.83
2023-01-02T02:54:09.931Z,7.77
2023-01-02T02:57:00.442Z,6.37
2023-01-02T02:59:49.057Z,4.03
2023-01-02T03:02:39.239Z,8.67
2023-01-02T03:05:34.506Z,8.33
2023-01-02T03:08:33.205Z,8.10
2023-01-02T03:11:27.849Z,4.50
2023-01-02T03:14:25.567Z,6.10
2023-01-02T03:17:21.071Z,4.97
2023-01-02T03:20:15.575Z,6.20
2023-01-02T03:23:08.767Z,6.57
2023-01-02T03:25:59.330Z,6.70
2023-01-02T03:28:54.261Z,5.90
2023-01-02T03:31:45.406Z,4.07
2023-01-02T03:34:35.720Z,6.20
2023-01-02T03:37:29.931Z,6.43
2023-01-02T03:40:23.514Z,6.93
2023-01-02T03:43:16.983Z,4.87
2023-01-02T03:46:10.731Z,6.03
2023-01-02T03:49:05.909Z,6.80
2023-01-02T03:51:55.342Z,7.00
2023-01-02T03:54:45.592Z,6.03
2023-01-02T03:57:41.432Z,4.97
2023-01-02T04:00:36.003Z,6.63
2023-01-02T04:03:31.986Z,7.40
2023-01-02T04:06:28.133Z,7.13
2023-01-02T04:09:21.699Z,6.73
2023-01-02T04:12:15.216Z,6.57
2023-01-02T04:15:07.848Z,9.93
2023-01-02T04:18:00.506Z,7.33
2023-01-02T04:20:52.585Z,6.80
2023-01-02T04:23:45.795Z,4.90
2023-01-02T04:26:40.435Z,6.97
2023-01-02T04:29:31.215Z,5.83
2023-01-02T04:32:24.128Z,7.93
2023-01-02T04:35:16.953Z,4.87
2023-01-02T04:38:09.221Z,7.03
2023-01-02T04:40:57.737Z,6.40
2023-01-02T04:43:46.213Z,8.67
2023-01-02T04:46:36.944Z,5.23
2023-01-02T04:49:27.025Z,6.57
2023-01-02T04:52:15.540Z,3.67
2023-01-02T04:55:04.648Z,6.53
2023-01-02T04:57:53.197Z,7.60
2023-01-02T05:00:41.682Z,6.17
2023-01-02T05:03:31.564Z,9.03
2023-01-02T05:06:20.626Z,6.73
2023-01-02T05:09:09.230Z,5.03
2023-01-02T05:11:57.875Z,5.70
2023-01-02T05:14:46.316Z,6.40
2023-01-02T05:17:36.248Z,5.00
2023-01-02T05:20:26.162Z,6.63
2023-01-02T05:23:33.300Z,5.30
2023-01-02T05:26:21.742Z,6.37
2023-01-02T05:29:10.299Z,7.63
2023-01-02T05:31:58.722Z,4.33
2023-01-02T05:34:47.385Z,4.73
2023-01-02T05:37:37.358Z,9.13
2023-01-02T05:40:25.839Z,7.30
2023-01-02T05:43:14.325Z,5.90
2023-01-02T05:46:08.530Z,5.70
2023-01-02T05:48:57.020Z,7.67
2023-01-02T05:51:45.703Z,5.37
2023-01-02T05:54:35.680Z,7.67
2023-01-02T05:57:24.240Z,5.30
2023-01-02T06:00:14.171Z,5.20
2023-01-02T06:03:02.774Z,5.73
2023-01-02T06:05:51.381Z,4.63
2023-01-02T06:08:40.163Z,4.87
2023-01-02T06:11:31.032Z,4.20
2023-01-02T06:14:20.068Z,8.63
2023-01-02T06:17:08.666Z,5.97
2023-01-02T06:19:57.096Z,4.60
2023-01-02T06:22:45.763Z,7.73
2023-01-02T06:25:34.977Z,4.90
2023-01-02T06:28:25.143Z,4.73
2023-01-02T06:31:16.653Z,11.47
2023-01-02T06:34:05.604Z,5.53
2023-01-02T06:36:54.516Z,7.60
2023-01-02T06:39:42.965Z,5.60
2023-01-02T06:42:33.162Z,6.33
2023-01-02T06:45:23.683Z,7.10
2023-01-02T06:48:12.216Z,5.97
2023-01-02T06:51:01.031Z,6.60
2023-01-02T06:53:50.631Z,4.73
2023-01-02T06:56:39.110Z,7.70
2023-01-02T06:59:27.715Z,8.47
2023-01-02T07:02:17.860Z,5.97
2023-01-02T07:05:07.302Z,5.93
2023-01-02T07:07:55.750Z,6.10
2023-01-02T07:10:47.987Z,5.10
2023-01-02T07:13:42.183Z,4.20
2023-01-02T07:16:30.863Z,4.93
2023-01-02T07:19:20.814Z,6.63
2023-01-02T07:22:09.394Z,4.80
2023-01-02T07:24:57.950Z,8.53
2023-01-02T07:27:46.689Z,26.07
2023-01-02T07:30:35.362Z,8.27
2023-01-02T07:33:23.867Z,5.50
2023-01-02T07:36:15.953Z,6.83
2023-01-02T07:39:04.648Z,6.83
2023-01-02T07:41:53.412Z,9.80
2023-01-02T07:44:41.920Z,3.77
2023-01-02T07:47:30.585Z,5.40
2023-01-02T07:50:19.135Z,4.33
2023-01-02T07:53:09.185Z,7.57
2023-01-02T07:55:58.934Z,8.80
2023-01-02T07:58:47.528Z,5.63
2023-01-02T08:01:36.066Z,4.70
2023-01-02T08:04:24.787Z,3.93
2023-01-02T08:07:13.502Z,7.67
2023-01-02T08:10:03.530Z,6.93
2023-01-02T08:12:52.605Z,4.87
2023-01-02T08:15:41.105Z,5.37
2023-01-02T08:18:29.601Z,5.87
2023-01-02T08:21:18.833Z,5.33
2023-01-02T08:24:08.536Z,6.07
2023-01-02T08:26:58.533Z,5.63
2023-01-02T08:29:47.353Z,7.07
2023-01-02T08:32:37.424Z,6.57
2023-01-02T08:35:38.005Z,8.47
2023-01-02T08:38:27.608Z,6.50
2023-01-02T08:41:16.313Z,6.43
2023-01-02T08:44:07.274Z,7.57
2023-01-02T08:46:56.449Z,10.47
2023-01-02T08:49:44.970Z,6.83
2023-01-02T08:52:33.787Z,8.67
2023-01-02T08:55:22.397Z,8.37
2023-01-02T08:58:10.906Z,7.53
2023-01-02T09:01:00.890Z,9.87
2023-01-02T09:03:49.708Z,7.43
2023-01-02T09:06:38.842Z,9.13
2023-01-02T09:09:27.430Z,9.20
2023-01-02T09:12:16.486Z,8.23
2023-01-02T09:15:05.802Z,9.33
2023-01-02T09:17:55.741Z,5.07
2023-01-02T09:20:44.319Z,6.90
2023-01-02T09:23:33.673Z,7.03
2023-01-02T09:26:22.910Z,6.87
2023-01-02T09:29:12.762Z,9.60
2023-01-02T09:32:01.763Z,7.17
2023-01-02T09:34:51.753Z,6.87
2023-01-02T09:37:40.184Z,5.70
2023-01-02T09:40:30.187Z,6.77
2023-01-02T09:43:24.359Z,6.87
2023-01-02T09:46:22.169Z,6.83
2023-01-02T09:49:15.211Z,4.63
2023-01-02T09:52:07.668Z,5.87
2023-01-02T09:54:56.245Z,4.53
2023-01-02T09:57:52.654Z,5.70
2023-01-02T10:00:43.011Z,9.17
2023-01-02T10:03:38.014Z,6.47
2023-01-02T10:06:29.873Z,7.90
2023-01-02T10:09:25.843Z,8.67
2023-01-02T10:12:21.476Z,10.37
2023-01-02T10:15:26.902Z,6.57
2023-01-02T10:18:21.697Z,8.83
2023-01-02T10:21:15.804Z,6.73
2023-01-02T10:24:11.683Z,5.13
2023-01-02T10:27:05.387Z,9.10
2023-01-02T10:30:05.382Z,8.87
2023-01-02T10:32:59.632Z,5.87
2023-01-02T10:35:54.165Z,6.40
2023-01-02T10:39:05.277Z,5.63
2023-01-02T10:41:59.384Z,6.20
2023-01-02T10:44:49.623Z,7.87
2023-01-02T10:47:39.927Z,7.83
2023-01-02T10:50:32.972Z,8.47
2023-01-02T10:53:23.512Z,5.03
2023-01-02T10:56:18.948Z,7.27
2023-01-02T10:59:21.523Z,5.77
2023-01-02T11:02:27.771Z,5.10
2023-01-02T11:05:21.436Z,10.13
2023-01-02T11:08:14.374Z,6.70
2023-01-02T11:11:02.947Z,12.20
2023-01-02T11:13:55.692Z,6.77
2023-01-02T11:16:44.382Z,9.07
2023-01-02T11:19:41.408Z,8.30
2023-01-02T11:22:36.452Z,9.00
2023-01-02T11:25:27.804Z,6.43
2023-01-02T11:28:19.231Z,7.67
2023-01-02T11:31:10.343Z,9.97
2023-01-02T11:34:10.446Z,6.77
2023-01-02T11:37:15.784Z,9.43
2023-01-02T11:40:09.363Z,10.97
2023-01-02T11:43:19.611Z,9.10
2023-01-02T11:46:33.392Z,9.50
2023-01-02T11:49:27.167Z,8.63
2023-01-02T11:52:20.920Z,8.80
2023-01-02T11:55:20.471Z,10.57
2023-01-02T11:58:18.943Z,9.40
2023-01-02T12:01:14.489Z,11.80
2023-01-02T12:04:03.386Z,11.00
2023-01-02T12:07:18.665Z,16.20
2023-01-02T12:10:21.458Z,10.23
2023-01-02T12:13:31.420Z,9.97
2023-01-02T12:16:29.617Z,12.80
2023-01-02T12:19:41.994Z,14.40
2023-01-02T12:22:51.502Z,7.13
2023-01-02T12:25:52.562Z,11.63
2023-01-02T12:29:09.761Z,11.90
2023-01-02T12:32:25.385Z,10.70
2023-01-02T12:35:35.937Z,9.90
2023-01-02T12:38:34.891Z,10.30
2023-01-02T12:41:30.648Z,13.97
2023-01-02T12:44:40.198Z,17.23
2023-01-02T12:47:51.491Z,13.13
2023-01-02T12:50:51.148Z,10.37
2023-01-02T12:54:18.711Z,5.90
2023-01-02T12:57:10.846Z,6.70
2023-01-02T13:00:21.847Z,10.20
2023-01-02T13:03:35.932Z,6.30
2023-01-02T13:06:45.549Z,5.73
2023-01-02T13:09:39.219Z,10.83
2023-01-02T13:12:31.756Z,7.80
2023-01-02T13:15:24.177Z,4.97
2023-01-02T13:18:20.666Z,4.13
2023-01-02T13:21:14.036Z,4.77
2023-01-02T13:24:03.126Z,9.73
2023-01-02T13:26:52.714Z,9.37
2023-01-02T13:29:44.660Z,6.17
2023-01-02T13:32:33.651Z,6.97
2023-01-02T13:35:24.199Z,7.20
2023-01-02T13:38:15.370Z,7.80
2023-01-02T13:41:04.179Z,9.23
2023-01-02T13:43:55.543Z,9.00
2023-01-02T13:50:03.977Z,9.17
2023-01-02T13:53:04.115Z,7.27
2023-01-02T13:56:05.986Z,9.03
2023-01-02T13:59:00.924Z,9.47
2023-01-02T14:02:16.745Z,9.67
2023-01-02T14:05:39.039Z,6.43
2023-01-02T14:08:29.779Z,9.63
2023-01-02T14:11:26.708Z,8.23
2023-01-02T14:14:21.594Z,8.60
2023-01-02T14:17:23.437Z,7.23
2023-01-02T14:20:24.323Z,11.17
2023-01-02T14:23:27.730Z,6.80
2023-01-02T14:26:29.715Z,5.97
2023-01-02T14:29:18.581Z,8.87
2023-01-02T14:32:10.243Z,7.97
2023-01-02T14:35:00.325Z,7.63
2023-01-02T14:37:50.386Z,9.67
2023-01-02T14:40:41.019Z,8.00
2023-01-02T14:43:35.867Z,11.00
2023-01-02T14:46:26.856Z,8.57
2023-01-02T14:49:25.228Z,8.87
2023-01-02T14:52:24.011Z,9.97
2023-01-02T14:55:19.178Z,12.73
2023-01-02T14:58:18.690Z,8.97
2023-01-02T15:01:08.915Z,11.03
2023-01-02T15:04:03.763Z,6.73
2023-01-02T15:07:10.027Z,10.67
2023-01-02T15:10:04.164Z,11.33
2023-01-02T15:13:07.728Z,11.23
2023-01-02T15:16:00.065Z,10.67
2023-01-02T15:18:50.459Z,11.47
2023-01-02T15:21:41.358Z,8.97
2023-01-02T15:24:31.514Z,14.00
2023-01-02T15:27:26.626Z,13.73
2023-01-02T15:30:24.664Z,9.87
2023-01-02T15:33:27.596Z,11.60
2023-01-02T15:36:20.726Z,7.77
2023-01-02T15:39:16.935Z,9.40
2023-01-02T15:42:26.588Z,9.90
2023-01-02T15:45:17.808Z,10.63
2023-01-02T15:48:06.700Z,10.23
2023-01-02T15:50:58.352Z,11.57
2023-01-02T15:53:50.038Z,12.87
2023-01-02T15:56:40.005Z,11.23
2023-01-02T15:59:30.471Z,11.43
2023-01-02T16:02:46.240Z,8.30
2023-01-02T16:05:46.899Z,9.83
2023-01-02T16:08:38.131Z,11.80
2023-01-02T16:11:27.798Z,12.00
2023-01-02T16:14:22.338Z,9.83
2023-01-02T16:17:22.709Z,9.93
2023-01-02T16:20:20.043Z,12.57
2023-01-02T16:23:15.365Z,8.77
2023-01-02T16:26:06.550Z,8.33
2023-01-02T16:28:55.880Z,10.33
2023-01-02T16:31:58.851Z,11.67
2023-01-02T16:34:58.730Z,14.27
2023-01-02T16:37:54.657Z,10.40
2023-01-02T16:41:01.692Z,14.53
2023-01-02T16:43:51.349Z,13.87
2023-01-02T16:46:40.825Z,12.70
2023-01-02T16:49:29.423Z,9.70
2023-01-02T16:52:18.037Z,11.57
2023-01-02T16:55:11.464Z,9.70
2023-01-02T16:58:01.278Z,11.77
2023-01-02T17:00:50.415Z,12.83
2023-01-02T17:03:41.823Z,5.80
2023-01-02T17:06:36.965Z,6.93
2023-01-02T17:09:25.465Z,5.90
2023-01-02T17:12:15.452Z,7.77
2023-01-02T17:15:04.333Z,5.43
2023-01-02T17:17:52.971Z,8.03
2023-01-02T17:20:43.068Z,4.03
2023-01-02T17:23:33.275Z,3.80
2023-01-02T17:26:24.732Z,1.33
2023-01-02T17:29:15.128Z,2.97
2023-01-02T17:32:04.719Z,2.50
2023-01-02T17:34:53.411Z,1.90
2023-01-02T17:37:44.450Z,2.03
2023-01-02T17:40:35.739Z,2.10
2023-01-02T17:43:25.344Z,1.63
2023-01-02T17:46:48.723Z,2.23
2023-01-02T17:49:26.700Z,2.43
2023-01-02T17:52:15.318Z,2.13
2023-01-02T17:55:04.059Z,3.37
2023-01-02T17:57:52.567Z,1.87
2023-01-02T18:00:44.328Z,2.63
2023-01-02T18:03:34.343Z,2.77
2023-01-02T18:06:22.978Z,1.70
2023-01-02T18:09:11.644Z,2.83
2023-01-02T18:12:00.317Z,2.30
2023-01-02T18:14:48.881Z,2.37
2023-01-02T18:17:37.475Z,1.80
2023-01-02T18:20:27.332Z,3.00
2023-01-02T18:23:16.336Z,1.63
2023-01-02T18:26:12.431Z,1.77
2023-01-02T18:29:09.800Z,1.97
2023-01-02T18:31:58.887Z,1.70
2023-01-02T18:34:49.096Z,1.53
2023-01-02T18:37:42.222Z,3.33
2023-01-02T18:40:33.329Z,2.80
2023-01-02T18:43:28.364Z,2.50
2023-01-02T18:46:19.314Z,3.70
2023-01-02T18:49:16.101Z,1.70
2023-01-02T18:52:22.532Z,1.03
2023-01-02T18:55:25.496Z,1.60
2023-01-02T18:58:37.782Z,1.23
2023-01-02T19:01:31.910Z,1.50
2023-01-02T19:04:29.488Z,1.87
2023-01-02T19:07:33.748Z,1.20
2023-01-02T19:10:37.091Z,1.07
2023-01-02T19:13:28.065Z,1.80
2023-01-02T19:16:20.204Z,1.47
2023-01-02T19:19:15.907Z,1.60
2023-01-02T19:22:11.840Z,1.00
2023-01-02T19:25:09.755Z,2.20
2023-01-02T19:28:02.879Z,2.27
2023-01-02T19:30:51.649Z,1.17
2023-01-02T19:33:42.233Z,1.47
2023-01-02T19:36:40.856Z,1.10
2023-01-02T19:39:35.282Z,1.70
2023-01-02T19:42:25.945Z,0.80
2023-01-02T19:45:17.887Z,1.47
2023-01-02T19:48:06.564Z,1.63
2023-01-02T19:50:55.061Z,1.00
2023-01-02T19:53:43.777Z,1.20
2023-01-02T19:56:32.302Z,1.30
2023-01-02T19:59:20.734Z,1.70
2023-01-02T20:02:10.828Z,1.10
2023-01-02T20:04:59.568Z,2.53
2023-01-02T20:07:48.073Z,1.33
2023-01-02T20:10:36.663Z,1.17
2023-01-02T20:13:25.167Z,1.67
2023-01-02T20:16:13.696Z,1.40
2023-01-02T20:19:04.051Z,1.20
2023-01-02T20:21:52.653Z,2.50
2023-01-02T20:24:47.914Z,2.00
2023-01-02T20:27:36.399Z,1.37
2023-01-02T20:30:25.513Z,2.10
2023-01-02T20:33:14.386Z,2.77
2023-01-02T20:36:09.800Z,2.50
2023-01-02T20:39:01.887Z,2.97
2023-01-02T20:41:50.504Z,2.27
2023-01-02T20:44:40.239Z,2.03
2023-01-02T20:47:28.747Z,2.57
2023-01-02T20:50:17.700Z,1.73
2023-01-02T20:53:07.861Z,2.03
2023-01-02T20:55:56.490Z,2.00
2023-01-02T20:58:45.211Z,1.77
2023-01-02T21:01:33.858Z,1.83
2023-01-02T21:04:27.985Z,2.17
2023-01-02T21:07:21.334Z,2.23
2023-01-02T21:10:11.502Z,2.07
2023-01-02T21:13:09.506Z,3.93
2023-01-02T21:15:58.480Z,1.93
2023-01-02T21:18:47.135Z,2.10
2023-01-02T21:21:36.116Z,1.90
2023-01-02T21:24:24.622Z,2.13
2023-01-02T21:27:14.563Z,2.40
2023-01-02T21:30:03.121Z,2.23
2023-01-02T21:32:51.698Z,1.93
2023-01-02T21:35:41.257Z,2.07
2023-01-02T21:38:30.401Z,1.80
2023-01-02T21:41:36.429Z,2.80
2023-01-02T21:44:26.305Z,1.97
2023-01-02T21:47:15.307Z,3.17
2023-01-02T21:50:03.963Z,2.13
2023-01-02T21:52:53.785Z,2.33
2023-01-02T21:55:42.428Z,2.43
2023-01-02T21:58:30.987Z,2.20
2023-01-02T22:01:21.020Z,2.40
2023-01-02T22:04:09.734Z,2.27
2023-01-02T22:10:08.213Z,2.73
2023-01-02T22:12:57.084Z,3.03
2023-01-02T22:15:46.012Z,4.07
2023-01-02T22:18:38.303Z,2.37
2023-01-02T22:21:27.053Z,2.77
2023-01-02T22:24:16.182Z,2.23
2023-01-02T22:27:07.792Z,1.83
2023-01-02T22:33:07.465Z,2.17
2023-01-02T22:35:57.400Z,2.20
2023-01-02T22:39:17.622Z,2.10
2023-01-02T22:42:49.345Z,2.10
2023-01-02T22:45:29.649Z,2.20
2023-01-02T22:48:23.081Z,2.30
2023-01-02T22:51:14.974Z,3.80
2023-01-02T22:54:03.529Z,4.17
2023-01-02T22:56:52.135Z,3.33
2023-01-02T22:59:41.723Z,3.57
2023-01-02T23:02:30.294Z,2.67
2023-01-02T23:05:20.581Z,2.33
2023-01-02T23:08:10.709Z,2.10
2023-01-02T23:10:59.577Z,2.30
2023-01-02T23:13:53.102Z,1.80
2023-01-02T23:17:02.325Z,1.90
2023-01-02T23:19:51.452Z,1.83
2023-01-02T23:22:39.926Z,2.77
2023-01-02T23:25:29.845Z,3.00
2023-01-02T23:28:39.266Z,2.10
2023-01-02T23:31:26.881Z,2.03
2023-01-02T23:34:18.912Z,2.00
2023-01-02T23:37:08.225Z,2.50
2023-01-02T23:39:56.896Z,2.13
2023-01-02T23:42:46.775Z,2.13
2023-01-02T23:45:35.356Z,2.53
2023-01-02T23:48:23.924Z,1.93
2023-01-02T23:51:12.569Z,2.47
2023-01-02T23:54:02.278Z,2.50
2023-01-02T23:56:51.967Z,2.07
2023-01-02T23:59:41.948Z,2.60
